createdAt,value
2022-11-20T00:00:18.133Z,-0.5
2022-11-20T00:01:24.465Z,-0.5
2022-11-20T00:02:30.797Z,-0.5
2022-11-20T00:03:37.089Z,-0.5
2022-11-20T00:04:43.402Z,-0.4
2022-11-20T00:05:49.731Z,-0.5
2022-11-20T00:06:56.064Z,-0.5
2022-11-20T00:08:02.374Z,-0.5
2022-11-20T00:09:08.688Z,-0.5
2022-11-20T00:10:15.007Z,-0.5
2022-11-20T00:11:21.348Z,-0.5
2022-11-20T00:12:27.644Z,-0.5
2022-11-20T00:13:33.968Z,-0.5
2022-11-20T00:14:40.285Z,-0.5
2022-11-20T00:15:46.596Z,-0.5
2022-11-20T00:16:52.918Z,-0.5
2022-11-20T00:17:59.239Z,-0.5
2022-11-20T00:19:05.550Z,-0.5
2022-11-20T00:20:11.875Z,-0.5
2022-11-20T00:21:18.194Z,-0.5
2022-11-20T00:22:24.504Z,-0.5
2022-11-20T00:23:30.826Z,-0.5
2022-11-20T00:24:37.143Z,-0.5
2022-11-20T00:25:43.460Z,-0.5
2022-11-20T00:26:49.771Z,-0.5
2022-11-20T00:27:56.156Z,-0.4
2022-11-20T00:29:02.548Z,-0.5
2022-11-20T00:30:08.939Z,-0.5
2022-11-20T00:31:15.343Z,-0.5
2022-11-20T00:32:21.739Z,-0.5
2022-11-20T00:33:28.132Z,-0.5
2022-11-20T00:34:34.528Z,-0.5
2022-11-20T00:35:40.933Z,-0.5
2022-11-20T00:36:47.319Z,-0.5
2022-11-20T00:37:53.713Z,-0.5
2022-11-20T00:39:00.114Z,-0.5
2022-11-20T00:40:06.508Z,-0.5
2022-11-20T00:41:12.900Z,-0.5
2022-11-20T00:42:19.421Z,-0.6
2022-11-20T00:43:25.975Z,-0.5
2022-11-20T00:44:32.476Z,-0.5
2022-11-20T00:45:39.001Z,-0.5
2022-11-20T00:46:45.520Z,-0.5
2022-11-20T00:47:52.038Z,-0.5
2022-11-20T00:48:58.556Z,-0.5
2022-11-20T00:50:05.068Z,-0.6
2022-11-20T00:51:11.592Z,-0.5
2022-11-20T00:52:18.123Z,-0.6
2022-11-20T00:53:24.633Z,-0.5
2022-11-20T00:54:31.158Z,-0.5
2022-11-20T00:55:37.690Z,-0.6
2022-11-20T00:56:44.462Z,-0.6
2022-11-20T00:57:50.078Z,-0.6
2022-11-20T00:58:56.400Z,-0.7
2022-11-20T01:00:02.728Z,-0.7
2022-11-20T01:01:09.047Z,-0.7
2022-11-20T01:02:15.363Z,-0.8
2022-11-20T01:03:21.691Z,-0.8
2022-11-20T01:04:28.003Z,-0.7
2022-11-20T01:05:34.318Z,-0.8
2022-11-20T01:06:40.635Z,-0.8
2022-11-20T01:07:46.959Z,-0.8
2022-11-20T01:08:53.264Z,-0.8
2022-11-20T01:09:59.597Z,-0.9
2022-11-20T01:11:05.924Z,-0.9
2022-11-20T01:12:12.235Z,-0.9
2022-11-20T01:13:18.555Z,-1
2022-11-20T01:14:24.878Z,-1
2022-11-20T01:15:31.202Z,-1
2022-11-20T01:16:37.521Z,-1
2022-11-20T01:17:43.864Z,-1
2022-11-20T01:18:50.170Z,-1
2022-11-20T01:19:56.505Z,-1.1
2022-11-20T01:21:02.848Z,-1.1
2022-11-20T01:22:09.156Z,-1.2
2022-11-20T01:23:15.486Z,-1.2
2022-11-20T01:24:21.814Z,-1.2
2022-11-20T01:25:28.220Z,-1.2
2022-11-20T01:26:34.635Z,-1.3
2022-11-20T01:27:41.030Z,-1.4
2022-11-20T01:28:47.443Z,-1.4
2022-11-20T01:29:53.843Z,-1.4
2022-11-20T01:31:00.240Z,-1.4
2022-11-20T01:32:06.637Z,-1.4
2022-11-20T01:33:13.021Z,-1.4
2022-11-20T01:34:19.429Z,-1.5
2022-11-20T01:35:25.830Z,-1.5
2022-11-20T01:36:32.225Z,-1.6
2022-11-20T01:37:38.620Z,-1.7
2022-11-20T01:38:45.020Z,-1.7
2022-11-20T01:39:51.550Z,-1.7
2022-11-20T01:40:58.073Z,-1.8
2022-11-20T01:42:04.608Z,-1.8
2022-11-20T01:43:11.125Z,-1.8
2022-11-20T01:44:17.652Z,-1.8
2022-11-20T01:45:24.173Z,-1.9
2022-11-20T01:46:30.710Z,-1.8
2022-11-20T01:47:37.236Z,-1.8
2022-11-20T01:48:43.759Z,-1.9
2022-11-20T01:49:50.282Z,-2
2022-11-20T01:50:56.799Z,-2
2022-11-20T01:52:03.333Z,-2.1
2022-11-20T01:53:09.872Z,-2.1
2022-11-20T01:55:45.510Z,-2.1
2022-11-20T01:56:51.127Z,-2.2
2022-11-20T01:57:57.456Z,-2.2
2022-11-20T01:59:03.781Z,-2.2
2022-11-20T02:00:10.108Z,-2.2
2022-11-20T02:01:16.445Z,-2.2
2022-11-20T02:02:22.767Z,-2.2
2022-11-20T02:03:29.101Z,-2.2
2022-11-20T02:04:35.430Z,-2.3
2022-11-20T02:05:41.772Z,-2.3
2022-11-20T02:06:48.100Z,-2.3
2022-11-20T02:07:54.427Z,-2.3
2022-11-20T02:09:00.764Z,-2.3
2022-11-20T02:10:07.102Z,-2.3
2022-11-20T02:11:13.440Z,-2.4
2022-11-20T02:12:19.771Z,-2.3
2022-11-20T02:13:26.112Z,-2.4
2022-11-20T02:14:32.451Z,-2.4
2022-11-20T02:15:38.782Z,-2.4
2022-11-20T02:16:45.125Z,-2.4
2022-11-20T02:17:51.459Z,-2.4
2022-11-20T02:18:57.817Z,-2.5
2022-11-20T02:20:04.152Z,-2.5
2022-11-20T02:21:10.479Z,-2.5
2022-11-20T02:22:16.817Z,-2.5
2022-11-20T02:23:23.156Z,-2.5
2022-11-20T02:24:29.571Z,-2.6
2022-11-20T02:25:35.979Z,-2.7
2022-11-20T02:26:42.397Z,-2.7
2022-11-20T02:27:48.814Z,-2.7
2022-11-20T02:28:55.260Z,-2.8
2022-11-20T02:30:01.645Z,-2.8
2022-11-20T02:31:08.053Z,-2.8
2022-11-20T02:32:14.472Z,-2.8
2022-11-20T02:33:20.892Z,-2.8
2022-11-20T02:34:27.318Z,-2.8
2022-11-20T02:35:33.737Z,-2.8
2022-11-20T02:36:40.159Z,-2.8
2022-11-20T02:37:46.622Z,-2.8
2022-11-20T02:38:53.100Z,-2.7
2022-11-20T02:39:59.637Z,-2.7
2022-11-20T02:41:06.180Z,-2.7
2022-11-20T02:42:12.727Z,-2.7
2022-11-20T02:43:19.272Z,-2.7
2022-11-20T02:44:25.823Z,-2.6
2022-11-20T02:45:32.371Z,-2.6
2022-11-20T02:46:38.915Z,-2.7
2022-11-20T02:47:45.464Z,-2.7
2022-11-20T02:48:52.002Z,-2.7
2022-11-20T02:49:58.547Z,-2.7
2022-11-20T02:51:05.101Z,-2.7
2022-11-20T02:52:11.640Z,-2.8
2022-11-20T02:53:18.438Z,-2.8
2022-11-20T02:54:24.085Z,-2.8
2022-11-20T02:55:30.419Z,-2.8
2022-11-20T02:56:36.770Z,-2.8
2022-11-20T02:57:43.107Z,-2.8
2022-11-20T02:58:49.446Z,-2.8
2022-11-20T02:59:55.785Z,-2.9
2022-11-20T03:01:02.128Z,-2.9
2022-11-20T03:02:08.463Z,-3
2022-11-20T03:03:14.814Z,-3
2022-11-20T03:04:21.160Z,-3.1
2022-11-20T03:05:27.499Z,-3.1
2022-11-20T03:06:33.859Z,-3.1
2022-11-20T03:07:40.200Z,-3.1
2022-11-20T03:08:46.560Z,-3.1
2022-11-20T03:09:52.899Z,-3.2
2022-11-20T03:10:59.256Z,-3.2
2022-11-20T03:12:05.605Z,-3.2
2022-11-20T03:13:11.961Z,-3.1
2022-11-20T03:14:18.312Z,-3.3
2022-11-20T03:15:24.655Z,-3.3
2022-11-20T03:16:31.011Z,-3.3
2022-11-20T03:17:37.367Z,-3.3
2022-11-20T03:18:43.706Z,-3.3
2022-11-20T03:19:50.075Z,-3.3
2022-11-20T03:20:56.393Z,-3.4
2022-11-20T03:22:02.828Z,-3.5
2022-11-20T03:23:09.259Z,-3.4
2022-11-20T03:24:15.680Z,-3.4
2022-11-20T03:25:22.102Z,-3.4
2022-11-20T03:26:28.530Z,-3.4
2022-11-20T03:27:34.965Z,-3.6
2022-11-20T03:28:41.395Z,-3.5
2022-11-20T03:29:47.822Z,-3.6
2022-11-20T03:30:54.246Z,-3.6
2022-11-20T03:32:00.664Z,-3.7
2022-11-20T03:33:07.078Z,-3.7
2022-11-20T03:34:13.506Z,-3.6
2022-11-20T03:35:19.925Z,-3.7
2022-11-20T03:36:26.474Z,-3.7
2022-11-20T03:37:33.033Z,-3.7
2022-11-20T03:38:39.565Z,-3.7
2022-11-20T03:39:46.127Z,-3.8
2022-11-20T03:40:52.678Z,-3.7
2022-11-20T03:41:59.227Z,-3.8
2022-11-20T03:43:05.771Z,-3.8
2022-11-20T03:44:12.328Z,-3.9
2022-11-20T03:45:18.885Z,-3.9
2022-11-20T03:46:25.478Z,-3.8
2022-11-20T03:47:31.995Z,-3.8
2022-11-20T03:48:38.549Z,-3.8
2022-11-20T03:49:45.100Z,-3.8
2022-11-20T03:52:20.798Z,-3.8
2022-11-20T03:53:26.459Z,-3.9
2022-11-20T03:54:32.793Z,-3.9
2022-11-20T03:55:39.147Z,-3.9
2022-11-20T03:56:45.500Z,-3.9
2022-11-20T03:57:51.842Z,-3.9
2022-11-20T03:58:58.196Z,-3.9
2022-11-20T04:00:04.545Z,-3.9
2022-11-20T04:01:10.898Z,-3.9
2022-11-20T04:02:17.264Z,-3.9
2022-11-20T04:03:23.616Z,-3.9
2022-11-20T04:04:29.975Z,-4
2022-11-20T04:05:36.332Z,-4
2022-11-20T04:06:42.681Z,-4
2022-11-20T04:07:49.033Z,-4.1
2022-11-20T04:08:55.390Z,-4.2
2022-11-20T04:10:01.752Z,-4.2
2022-11-20T04:11:08.107Z,-4.2
2022-11-20T04:12:14.459Z,-4.2
2022-11-20T04:13:20.820Z,-4.2
2022-11-20T04:14:27.167Z,-4.2
2022-11-20T04:15:33.525Z,-4.3
2022-11-20T04:16:39.867Z,-4.5
2022-11-20T04:17:46.230Z,-4.6
2022-11-20T04:18:52.583Z,-4.5
2022-11-20T04:19:58.944Z,-4.5
2022-11-20T04:21:05.366Z,-4.5
2022-11-20T04:22:11.817Z,-4.5
2022-11-20T04:23:18.235Z,-4.5
2022-11-20T04:24:24.697Z,-4.5
2022-11-20T04:25:31.105Z,-4.5
2022-11-20T04:26:37.545Z,-4.5
2022-11-20T04:27:43.991Z,-4.5
2022-11-20T04:28:50.437Z,-4.5
2022-11-20T04:29:56.868Z,-4.5
2022-11-20T04:31:03.300Z,-4.4
2022-11-20T04:32:09.740Z,-4.5
2022-11-20T04:33:16.174Z,-4.6
2022-11-20T04:34:22.621Z,-4.6
2022-11-20T04:35:29.184Z,-4.6
2022-11-20T04:36:35.746Z,-4.6
2022-11-20T04:37:42.315Z,-4.7
2022-11-20T04:38:48.887Z,-4.7
2022-11-20T04:39:55.431Z,-4.6
2022-11-20T04:41:01.987Z,-4.6
2022-11-20T04:42:08.555Z,-4.5
2022-11-20T04:43:15.114Z,-4.5
2022-11-20T04:44:21.672Z,-4.5
2022-11-20T04:45:28.233Z,-4.4
2022-11-20T04:46:34.795Z,-4.4
2022-11-20T04:47:41.360Z,-4.5
2022-11-20T04:48:47.936Z,-4.5
2022-11-20T04:49:54.737Z,-4.6
2022-11-20T04:51:00.392Z,-4.6
2022-11-20T04:52:06.763Z,-4.6
2022-11-20T04:53:13.131Z,-4.5
2022-11-20T04:54:19.487Z,-4.5
2022-11-20T04:55:25.858Z,-4.5
2022-11-20T04:56:32.227Z,-4.6
2022-11-20T04:57:38.591Z,-4.6
2022-11-20T04:58:44.949Z,-4.6
2022-11-20T04:59:51.316Z,-4.6
2022-11-20T05:00:57.681Z,-4.6
2022-11-20T05:02:04.052Z,-4.7
2022-11-20T05:03:10.419Z,-4.7
2022-11-20T05:04:16.796Z,-4.7
2022-11-20T05:05:23.153Z,-4.7
2022-11-20T05:06:29.533Z,-4.6
2022-11-20T05:07:35.897Z,-4.6
2022-11-20T05:08:42.263Z,-4.6
2022-11-20T05:09:48.653Z,-4.5
2022-11-20T05:10:55.011Z,-4.5
2022-11-20T05:12:01.388Z,-4.6
2022-11-20T05:13:07.751Z,-4.6
2022-11-20T05:14:14.125Z,-4.6
2022-11-20T05:15:20.484Z,-4.6
2022-11-20T05:16:26.851Z,-4.5
2022-11-20T05:17:33.217Z,-4.5
2022-11-20T05:18:39.647Z,-4.5
2022-11-20T05:19:46.095Z,-4.5
2022-11-20T05:20:52.535Z,-4.5
2022-11-20T05:21:58.976Z,-4.5
2022-11-20T05:23:05.416Z,-4.5
2022-11-20T05:24:11.853Z,-4.5
2022-11-20T05:25:18.320Z,-4.5
2022-11-20T05:26:24.739Z,-4.4
2022-11-20T05:27:31.188Z,-4.4
2022-11-20T05:28:37.622Z,-4.4
2022-11-20T05:29:44.060Z,-4.4
2022-11-20T05:30:50.503Z,-4.4
2022-11-20T05:31:56.948Z,-4.5
2022-11-20T05:33:03.515Z,-4.5
2022-11-20T05:34:10.080Z,-4.5
2022-11-20T05:35:16.640Z,-4.5
2022-11-20T05:36:23.207Z,-4.5
2022-11-20T05:37:29.777Z,-4.5
2022-11-20T05:38:36.345Z,-4.4
2022-11-20T05:39:42.905Z,-4.4
2022-11-20T05:40:49.464Z,-4.4
2022-11-20T05:41:56.023Z,-4.4
2022-11-20T05:43:02.592Z,-4.4
2022-11-20T05:44:09.166Z,-4.4
2022-11-20T05:45:15.719Z,-4.3
2022-11-20T05:46:22.297Z,-4.3
2022-11-20T05:48:58.036Z,-4.3
2022-11-20T05:50:03.676Z,-4.3
2022-11-20T05:51:10.053Z,-4.3
2022-11-20T05:52:16.412Z,-4.3
2022-11-20T05:53:22.775Z,-4.4
2022-11-20T05:54:29.138Z,-4.3
2022-11-20T05:55:35.492Z,-4.3
2022-11-20T05:56:41.864Z,-4.3
2022-11-20T05:57:48.213Z,-4.3
2022-11-20T05:58:54.589Z,-4.3
2022-11-20T06:00:00.950Z,-4.3
2022-11-20T06:01:07.309Z,-4.3
2022-11-20T06:02:13.662Z,-4.3
2022-11-20T06:03:20.025Z,-4.3
2022-11-20T06:04:26.385Z,-4.4
2022-11-20T06:05:32.758Z,-4.4
2022-11-20T06:06:39.112Z,-4.5
2022-11-20T06:07:45.482Z,-4.4
2022-11-20T06:08:51.841Z,-4.5
2022-11-20T06:09:58.199Z,-4.5
2022-11-20T06:11:04.575Z,-4.5
2022-11-20T06:12:10.926Z,-4.5
2022-11-20T06:13:17.292Z,-4.6
2022-11-20T06:14:23.651Z,-4.6
2022-11-20T06:15:30.039Z,-4.5
2022-11-20T06:16:36.464Z,-4.6
2022-11-20T06:17:42.829Z,-4.5
2022-11-20T06:18:49.271Z,-4.5
2022-11-20T06:19:55.715Z,-4.5
2022-11-20T06:21:02.158Z,-4.4
2022-11-20T06:22:08.603Z,-4.5
2022-11-20T06:23:15.040Z,-4.5
2022-11-20T06:24:21.484Z,-4.4
2022-11-20T06:25:27.918Z,-4.4
2022-11-20T06:26:34.358Z,-4.4
2022-11-20T06:27:40.801Z,-4.3
2022-11-20T06:28:47.229Z,-4.3
2022-11-20T06:29:53.708Z,-4.3
2022-11-20T06:31:00.170Z,-4.3
2022-11-20T06:32:06.684Z,-4.3
2022-11-20T06:33:13.248Z,-4.3
2022-11-20T06:34:19.818Z,-4.3
2022-11-20T06:35:26.384Z,-4.3
2022-11-20T06:36:32.946Z,-4.3
2022-11-20T06:37:39.488Z,-4.4
2022-11-20T06:38:46.059Z,-4.3
2022-11-20T06:39:52.625Z,-4.4
2022-11-20T06:40:59.195Z,-4.4
2022-11-20T06:42:05.784Z,-4.4
2022-11-20T06:43:12.330Z,-4.4
2022-11-20T06:44:18.913Z,-4.4
2022-11-20T06:45:25.468Z,-4.5
2022-11-20T06:46:32.298Z,-4.4
2022-11-20T06:47:37.969Z,-4.5
2022-11-20T06:48:44.340Z,-4.5
2022-11-20T06:49:50.705Z,-4.5
2022-11-20T06:50:57.072Z,-4.5
2022-11-20T06:52:03.444Z,-4.4
2022-11-20T06:53:09.813Z,-4.4
2022-11-20T06:54:16.164Z,-4.4
2022-11-20T06:55:22.540Z,-4.4
2022-11-20T06:56:28.908Z,-4.3
2022-11-20T06:57:35.275Z,-4.3
2022-11-20T06:58:41.647Z,-4.4
2022-11-20T06:59:48.008Z,-4.3
2022-11-20T07:00:54.372Z,-4.3
2022-11-20T07:02:00.732Z,-4.4
2022-11-20T07:03:07.105Z,-4.3
2022-11-20T07:04:13.475Z,-4.3
2022-11-20T07:05:19.834Z,-4.3
2022-11-20T07:06:26.199Z,-4.3
2022-11-20T07:07:32.553Z,-4.3
2022-11-20T07:08:38.915Z,-4.3
2022-11-20T07:09:45.273Z,-4.3
2022-11-20T07:10:51.640Z,-4.3
2022-11-20T07:11:57.994Z,-4.4
2022-11-20T07:13:04.351Z,-4.4
2022-11-20T07:14:10.720Z,-4.4
2022-11-20T07:15:17.173Z,-4.4
2022-11-20T07:16:23.609Z,-4.2
2022-11-20T07:17:30.062Z,-3.8
2022-11-20T07:18:36.485Z,-3.1
2022-11-20T07:19:42.914Z,-2.6
2022-11-20T07:20:49.335Z,-2
2022-11-20T07:21:55.766Z,-1.5
2022-11-20T07:23:02.191Z,-1.3
2022-11-20T07:24:08.589Z,-1.1
2022-11-20T07:25:15.066Z,-1.1
2022-11-20T07:26:21.406Z,-1.3
2022-11-20T07:27:27.815Z,-1.7
2022-11-20T07:28:34.222Z,-2.1
2022-11-20T07:29:40.769Z,-2.3
2022-11-20T07:30:47.277Z,-2.3
2022-11-20T07:31:53.798Z,-2.3
2022-11-20T07:33:00.328Z,-2.6
2022-11-20T07:34:06.867Z,-2.9
2022-11-20T07:35:13.394Z,-3.1
2022-11-20T07:36:19.940Z,-3.2
2022-11-20T07:37:26.487Z,-3.3
2022-11-20T07:38:32.991Z,-3.3
2022-11-20T07:39:39.533Z,-3.4
2022-11-20T07:40:46.066Z,-3.5
2022-11-20T07:41:52.604Z,-3.6
2022-11-20T07:42:59.141Z,-3.6
2022-11-20T07:45:34.817Z,-3.6
2022-11-20T07:46:40.448Z,-3.5
2022-11-20T07:47:46.788Z,-3.5
2022-11-20T07:48:53.139Z,-3.6
2022-11-20T07:49:59.469Z,-3.6
2022-11-20T07:51:05.816Z,-3.6
2022-11-20T07:52:12.161Z,-3.6
2022-11-20T07:53:18.503Z,-3.6
2022-11-20T07:54:24.845Z,-3.6
2022-11-20T07:55:31.185Z,-3.6
2022-11-20T07:56:37.530Z,-3.7
2022-11-20T07:57:43.865Z,-3.6
2022-11-20T07:58:50.221Z,-3.4
2022-11-20T07:59:56.554Z,-3.4
2022-11-20T08:01:02.929Z,-3.3
2022-11-20T08:02:09.382Z,-3.3
2022-11-20T08:03:15.600Z,-3.3
2022-11-20T08:04:21.942Z,-3.2
2022-11-20T08:05:28.316Z,-3
2022-11-20T08:06:34.718Z,-2.8
2022-11-20T08:07:41.003Z,-2.6
2022-11-20T08:08:47.344Z,-2.7
2022-11-20T08:09:53.686Z,-2.8
2022-11-20T08:11:00.106Z,-2.5
2022-11-20T08:12:06.366Z,-2.4
2022-11-20T08:13:12.761Z,-2.5
2022-11-20T08:14:19.181Z,-2.7
2022-11-20T08:15:25.548Z,-2.8
2022-11-20T08:16:31.974Z,-2.7
2022-11-20T08:17:38.376Z,-2.7
2022-11-20T08:18:44.859Z,-2.6
2022-11-20T08:19:51.214Z,-2.5
2022-11-20T08:20:57.672Z,-2.3
2022-11-20T08:22:04.099Z,-2
2022-11-20T08:23:10.457Z,-1.9
2022-11-20T08:24:16.873Z,-1.9
2022-11-20T08:25:23.341Z,-2
2022-11-20T08:26:29.717Z,-2
2022-11-20T08:27:36.134Z,-1.9
2022-11-20T08:28:42.705Z,-1.7
2022-11-20T08:29:49.196Z,-1.4
2022-11-20T08:30:55.744Z,-1.2
2022-11-20T08:32:02.266Z,-0.9
2022-11-20T08:33:08.834Z,-0.8
2022-11-20T08:34:15.325Z,-1
2022-11-20T08:35:21.857Z,-1
2022-11-20T08:36:28.399Z,-1.1
2022-11-20T08:37:34.923Z,-1.2
2022-11-20T08:38:41.453Z,-1.2
2022-11-20T08:39:48.069Z,-1.3
2022-11-20T08:40:54.505Z,-1.3
2022-11-20T08:42:01.067Z,-1.3
2022-11-20T08:44:58.809Z,-1.1
2022-11-20T08:46:04.419Z,-1.1
2022-11-20T08:47:10.748Z,-1.3
2022-11-20T08:48:17.078Z,-1.1
2022-11-20T08:49:23.402Z,-1.1
2022-11-20T08:50:29.729Z,-1.1
2022-11-20T08:51:36.050Z,-1
2022-11-20T08:52:42.381Z,-1.1
2022-11-20T08:53:48.702Z,-1.1
2022-11-20T08:54:55.023Z,-1
2022-11-20T08:56:01.377Z,-1
2022-11-20T08:57:07.692Z,-1.1
2022-11-20T08:58:14.039Z,-1.1
2022-11-20T08:59:20.361Z,-1
2022-11-20T09:00:26.757Z,-0.9
2022-11-20T09:01:33.035Z,-0.9
2022-11-20T09:02:39.345Z,-0.9
2022-11-20T09:03:45.787Z,-0.7
2022-11-20T09:04:52.106Z,-0.8
2022-11-20T09:05:58.369Z,-0.7
2022-11-20T09:07:04.703Z,-0.6
2022-11-20T09:08:11.092Z,-0.4
2022-11-20T09:09:17.436Z,-0.3
2022-11-20T09:10:23.811Z,-0.1
2022-11-20T09:11:30.092Z,0.1
2022-11-20T09:12:36.498Z,0.4
2022-11-20T09:13:42.823Z,0.9
2022-11-20T09:14:49.245Z,1.2
2022-11-20T09:15:55.653Z,1.6
2022-11-20T09:17:02.023Z,1.8
2022-11-20T09:18:08.302Z,2.1
2022-11-20T09:19:14.832Z,2.3
2022-11-20T09:20:21.026Z,2.4
2022-11-20T09:21:27.580Z,2.4
2022-11-20T09:22:33.874Z,2.7
2022-11-20T09:23:40.296Z,2.6
2022-11-20T09:24:46.739Z,2.7
2022-11-20T09:25:53.169Z,2.4
2022-11-20T09:26:59.541Z,2.1
2022-11-20T09:28:05.993Z,1.8
2022-11-20T09:29:12.427Z,1.9
2022-11-20T09:30:18.819Z,1.9
2022-11-20T09:31:25.371Z,1.9
2022-11-20T09:32:31.822Z,2.2
2022-11-20T09:33:38.498Z,2.4
2022-11-20T09:34:45.005Z,2.4
2022-11-20T09:35:50.456Z,2.3
2022-11-20T09:36:56.712Z,2.3
2022-11-20T09:38:02.933Z,2.4
2022-11-20T09:39:09.270Z,2.8
2022-11-20T09:40:15.545Z,2.4
2022-11-20T09:41:21.873Z,1.9
2022-11-20T09:42:28.188Z,1.9
2022-11-20T09:43:34.479Z,2
2022-11-20T09:44:40.789Z,2.3
2022-11-20T09:45:47.126Z,2
2022-11-20T09:46:53.355Z,1.8
2022-11-20T09:47:59.634Z,1.8
2022-11-20T09:49:05.968Z,1.9
2022-11-20T09:50:12.303Z,2.1
2022-11-20T09:51:18.386Z,2.1
2022-11-20T09:52:24.843Z,2.3
2022-11-20T09:53:30.961Z,2.5
2022-11-20T09:54:37.476Z,2.4
2022-11-20T09:55:43.714Z,2.1
2022-11-20T09:56:49.984Z,1.9
2022-11-20T09:57:56.287Z,1.9
2022-11-20T09:59:02.556Z,2.1
2022-11-20T10:00:08.881Z,1.9
2022-11-20T10:01:14.999Z,1.8
2022-11-20T10:02:21.436Z,1.9
2022-11-20T10:03:27.804Z,2
2022-11-20T10:04:34.142Z,2.2
2022-11-20T10:05:40.473Z,2.4
2022-11-20T10:06:46.684Z,2.7
2022-11-20T10:07:53.208Z,2.7
2022-11-20T10:08:59.560Z,2.4
2022-11-20T10:10:05.965Z,2.2
2022-11-20T10:11:12.119Z,2.2
2022-11-20T10:12:18.637Z,1.9
2022-11-20T10:13:25.066Z,2.3
2022-11-20T10:14:31.277Z,2.4
2022-11-20T10:15:37.528Z,2.6
2022-11-20T10:16:43.871Z,2.6
2022-11-20T10:17:50.498Z,2.5
2022-11-20T10:18:56.093Z,2.6
2022-11-20T10:20:02.040Z,2.5
2022-11-20T10:21:08.511Z,2.1
2022-11-20T10:22:14.764Z,2.3
2022-11-20T10:23:21.038Z,2.6
2022-11-20T10:24:27.333Z,2.7
2022-11-20T10:25:33.625Z,2.7
2022-11-20T10:26:39.885Z,2.7
2022-11-20T10:27:46.152Z,2.9
2022-11-20T10:28:52.376Z,3.1
2022-11-20T10:29:58.704Z,2.9
2022-11-20T10:31:04.871Z,3.3
2022-11-20T10:32:11.249Z,3.5
2022-11-20T10:33:17.542Z,3.4
2022-11-20T10:34:23.877Z,2.8
2022-11-20T10:35:30.088Z,3.1
2022-11-20T10:36:36.343Z,3.1
2022-11-20T10:37:42.615Z,3.4
2022-11-20T10:38:48.684Z,3.2
2022-11-20T10:39:55.150Z,2.7
2022-11-20T10:41:01.389Z,2.6
2022-11-20T10:42:07.580Z,2.6
2022-11-20T10:43:13.901Z,2.7
2022-11-20T10:44:20.004Z,2.9
2022-11-20T10:45:26.557Z,2.9
2022-11-20T10:46:32.778Z,3.1
2022-11-20T10:47:39.125Z,3.2
2022-11-20T10:48:45.433Z,3.3
2022-11-20T10:49:51.724Z,3.2
2022-11-20T10:50:58.167Z,3.1
2022-11-20T10:52:04.481Z,3.2
2022-11-20T10:53:10.856Z,3.2
2022-11-20T10:54:17.138Z,3.4
2022-11-20T10:55:23.362Z,3.6
2022-11-20T10:56:29.781Z,3.7
2022-11-20T10:57:36.185Z,3.5
2022-11-20T10:58:42.500Z,3.6
2022-11-20T10:59:48.896Z,3.9
2022-11-20T11:00:55.356Z,4
2022-11-20T11:02:00.714Z,4
2022-11-20T11:03:06.991Z,3.6
2022-11-20T11:04:13.294Z,3.2
2022-11-20T11:05:19.328Z,3
2022-11-20T11:06:25.766Z,2.8
2022-11-20T11:07:32.036Z,3.2
2022-11-20T11:08:38.304Z,3.2
2022-11-20T11:09:44.587Z,3.3
2022-11-20T11:10:50.781Z,3.5
2022-11-20T11:11:57.072Z,3.7
2022-11-20T11:13:03.392Z,3.8
2022-11-20T11:14:09.614Z,3.8
2022-11-20T11:15:15.852Z,3.7
2022-11-20T11:16:22.061Z,3.9
2022-11-20T11:17:28.353Z,4.2
2022-11-20T11:18:34.420Z,4.6
2022-11-20T11:19:40.804Z,4.9
2022-11-20T11:20:47.102Z,4.9
2022-11-20T11:21:53.329Z,4.7
2022-11-20T11:22:59.440Z,4.9
2022-11-20T11:24:05.874Z,4.8
2022-11-20T11:25:12.114Z,4.6
2022-11-20T11:26:18.364Z,4.6
2022-11-20T11:27:24.622Z,4.9
2022-11-20T11:28:30.855Z,4.9
2022-11-20T11:29:37.187Z,4.8
2022-11-20T11:30:43.507Z,5.2
2022-11-20T11:31:49.826Z,4.6
2022-11-20T11:32:56.145Z,4.3
2022-11-20T11:34:02.480Z,4.2
2022-11-20T11:35:08.637Z,4.1
2022-11-20T11:36:15.134Z,4.1
2022-11-20T11:37:21.418Z,3.9
2022-11-20T11:38:27.597Z,3.8
2022-11-20T11:39:34.153Z,3.6
2022-11-20T11:40:40.439Z,3.5
2022-11-20T11:41:46.761Z,3.4
2022-11-20T11:42:53.051Z,3.3
2022-11-20T11:43:59.348Z,3.5
2022-11-20T11:45:04.913Z,3.4
2022-11-20T11:46:11.130Z,3.4
2022-11-20T11:47:17.349Z,3.3
2022-11-20T11:48:23.654Z,3.1
2022-11-20T11:49:29.917Z,3
2022-11-20T11:50:36.135Z,3
2022-11-20T11:51:42.405Z,3
2022-11-20T11:52:48.642Z,3
2022-11-20T11:53:54.956Z,2.9
2022-11-20T11:55:00.983Z,2.5
2022-11-20T11:56:07.475Z,2.5
2022-11-20T11:57:13.549Z,2.5
2022-11-20T11:58:19.882Z,2.5
2022-11-20T11:59:26.085Z,2.5
2022-11-20T12:00:32.417Z,2.5
2022-11-20T12:01:38.718Z,2.6
2022-11-20T12:02:44.953Z,2.6
2022-11-20T12:03:51.160Z,2.6
2022-11-20T12:04:57.471Z,2.6
2022-11-20T12:06:03.721Z,2.5
2022-11-20T12:07:10.000Z,2.6
2022-11-20T12:08:16.217Z,2.6
2022-11-20T12:09:22.348Z,2.7
2022-11-20T12:10:28.789Z,2.7
2022-11-20T12:11:34.870Z,2.7
2022-11-20T12:12:41.426Z,2.8
2022-11-20T12:13:47.718Z,2.7
2022-11-20T12:14:54.063Z,2.6
2022-11-20T12:16:00.341Z,2.6
2022-11-20T12:17:06.582Z,2.6
2022-11-20T12:18:13.179Z,2.6
2022-11-20T12:19:19.261Z,2.6
2022-11-20T12:20:25.599Z,2.6
2022-11-20T12:21:32.164Z,2.6
2022-11-20T12:22:38.483Z,2.6
2022-11-20T12:23:44.841Z,2.5
2022-11-20T12:24:51.135Z,2.6
2022-11-20T12:25:57.521Z,2.6
2022-11-20T12:27:04.013Z,2.5
2022-11-20T12:28:09.433Z,2.6
2022-11-20T12:29:15.503Z,2.6
2022-11-20T12:30:21.959Z,2.6
2022-11-20T12:31:28.289Z,2.6
2022-11-20T12:32:34.490Z,2.6
2022-11-20T12:33:40.722Z,2.5
2022-11-20T12:34:47.025Z,2.5
2022-11-20T12:35:53.214Z,2.6
2022-11-20T12:36:59.610Z,2.7
2022-11-20T12:38:05.882Z,2.8
2022-11-20T12:39:11.956Z,2.9
2022-11-20T12:40:18.414Z,3
2022-11-20T12:41:24.633Z,3
2022-11-20T12:42:30.952Z,3
2022-11-20T12:43:37.275Z,3
2022-11-20T12:44:43.519Z,3.1
2022-11-20T12:45:49.594Z,3.7
2022-11-20T12:46:55.982Z,3.9
2022-11-20T12:48:02.360Z,4
2022-11-20T12:49:08.515Z,4.1
2022-11-20T12:50:14.717Z,4
2022-11-20T12:51:20.962Z,3.9
2022-11-20T12:52:27.412Z,4
2022-11-20T12:53:33.663Z,3.7
2022-11-20T12:54:39.927Z,3.5
2022-11-20T12:55:46.206Z,3.4
2022-11-20T12:56:52.441Z,3.4
2022-11-20T12:57:58.952Z,3.3
2022-11-20T12:59:05.422Z,3.2
2022-11-20T13:00:11.542Z,3.4
2022-11-20T13:01:17.900Z,3.6
2022-11-20T13:02:24.303Z,3.8
2022-11-20T13:03:30.668Z,3.9
2022-11-20T13:04:37.045Z,4
2022-11-20T13:05:43.311Z,4.1
2022-11-20T13:06:49.565Z,4.3
2022-11-20T13:07:55.893Z,4.3
2022-11-20T13:09:02.166Z,4
2022-11-20T13:10:08.643Z,4.1
2022-11-20T13:11:14.045Z,4.1
2022-11-20T13:12:20.448Z,4
2022-11-20T13:13:26.583Z,4
2022-11-20T13:14:32.851Z,3.7
2022-11-20T13:15:39.038Z,3.7
2022-11-20T13:16:45.352Z,3.5
2022-11-20T13:17:51.583Z,3.4
2022-11-20T13:18:57.824Z,3.4
2022-11-20T13:20:04.159Z,3.4
2022-11-20T13:21:10.415Z,3.4
2022-11-20T13:22:16.746Z,3.5
2022-11-20T13:23:22.865Z,3.5
2022-11-20T13:24:29.122Z,3.5
2022-11-20T13:25:35.542Z,3.5
2022-11-20T13:26:41.675Z,3.6
2022-11-20T13:27:47.936Z,3.6
2022-11-20T13:28:54.172Z,3.7
2022-11-20T13:30:00.374Z,3.7
2022-11-20T13:31:06.627Z,3.7
2022-11-20T13:32:12.905Z,3.7
2022-11-20T13:33:19.295Z,3.8
2022-11-20T13:34:25.401Z,3.9
2022-11-20T13:35:31.932Z,3.8
2022-11-20T13:36:37.909Z,3.9
2022-11-20T13:37:44.210Z,3.9
2022-11-20T13:38:50.554Z,3.6
2022-11-20T13:39:56.845Z,3.7
2022-11-20T13:41:03.184Z,3.7
2022-11-20T13:42:09.611Z,3.6
2022-11-20T13:43:15.931Z,3.6
2022-11-20T13:44:22.186Z,3.6
2022-11-20T13:45:28.565Z,3.6
2022-11-20T13:46:34.856Z,3.6
2022-11-20T13:47:41.187Z,3.5
2022-11-20T13:48:47.527Z,3.4
2022-11-20T13:49:53.946Z,3.2
2022-11-20T13:51:00.196Z,3.2
2022-11-20T13:52:06.537Z,3.1
2022-11-20T13:53:12.994Z,3.1
2022-11-20T13:54:18.511Z,3.2
2022-11-20T13:55:24.652Z,3.1
2022-11-20T13:56:30.979Z,3.1
2022-11-20T13:57:37.239Z,3.2
2022-11-20T13:58:43.504Z,3.1
2022-11-20T13:59:49.722Z,3
2022-11-20T14:00:55.986Z,3.1
2022-11-20T14:02:02.243Z,3
2022-11-20T14:03:08.609Z,3.1
2022-11-20T14:04:14.894Z,3.1
2022-11-20T14:05:21.175Z,3.1
2022-11-20T14:06:27.467Z,3.2
2022-11-20T14:07:33.630Z,3
2022-11-20T14:08:39.917Z,2.9
2022-11-20T14:09:46.170Z,2.9
2022-11-20T14:10:52.390Z,2.9
2022-11-20T14:11:58.686Z,2.9
2022-11-20T14:13:05.011Z,2.9
2022-11-20T14:14:11.317Z,2.9
2022-11-20T14:15:17.614Z,2.9
2022-11-20T14:16:23.810Z,2.9
2022-11-20T14:17:30.088Z,2.9
2022-11-20T14:18:36.331Z,2.9
2022-11-20T14:19:42.607Z,2.9
2022-11-20T14:20:48.869Z,2.9
2022-11-20T14:21:55.226Z,2.8
2022-11-20T14:23:01.573Z,2.8
2022-11-20T14:24:07.927Z,2.8
2022-11-20T14:25:14.500Z,2.8
2022-11-20T14:26:20.645Z,2.7
2022-11-20T14:27:26.968Z,2.7
2022-11-20T14:28:33.308Z,2.7
2022-11-20T14:29:39.664Z,2.7
2022-11-20T14:30:46.004Z,2.7
2022-11-20T14:31:52.483Z,2.7
2022-11-20T14:32:58.708Z,2.6
2022-11-20T14:34:05.134Z,2.5
2022-11-20T14:35:11.491Z,2.5
2022-11-20T14:36:17.883Z,2.4
2022-11-20T14:37:23.384Z,2.4
2022-11-20T14:38:29.560Z,2.3
2022-11-20T14:39:35.832Z,2.2
2022-11-20T14:40:42.213Z,2.2
2022-11-20T14:41:48.431Z,2.1
2022-11-20T14:42:54.688Z,2
2022-11-20T14:44:01.010Z,2
2022-11-20T14:45:07.287Z,1.9
2022-11-20T14:46:13.602Z,1.8
2022-11-20T14:47:19.848Z,1.8
2022-11-20T14:48:26.030Z,1.7
2022-11-20T14:49:32.302Z,1.7
2022-11-20T14:50:38.599Z,1.6
2022-11-20T14:51:44.897Z,1.6
2022-11-20T14:52:51.151Z,1.6
2022-11-20T14:53:57.510Z,1.6
2022-11-20T14:55:03.804Z,1.6
2022-11-20T14:56:10.061Z,1.6
2022-11-20T14:57:16.280Z,1.5
2022-11-20T14:58:22.642Z,1.5
2022-11-20T14:59:28.921Z,1.5
2022-11-20T15:00:35.206Z,1.5
2022-11-20T15:01:41.443Z,1.5
2022-11-20T15:02:47.846Z,1.6
2022-11-20T15:03:54.018Z,1.5
2022-11-20T15:05:00.495Z,1.5
2022-11-20T15:06:06.834Z,1.5